createdAt,value
2019-06-08T00:01:52.797Z,91.30
2019-06-08T00:04:22.976Z,91.60
2019-06-08T00:06:52.911Z,91.90
2019-06-08T00:09:24.044Z,92.00
2019-06-08T00:11:53.882Z,92.10
2019-06-08T00:14:23.878Z,92.20
2019-06-08T00:16:53.875Z,92.60
2019-06-08T00:19:23.873Z,92.70
2019-06-08T00:21:53.878Z,92.60
2019-06-08T00:24:24.066Z,92.60
2019-06-08T00:26:53.879Z,93.00
2019-06-08T00:29:24.589Z,93.00
2019-06-08T00:31:54.843Z,93.10
2019-06-08T00:34:24.988Z,93.30
2019-06-08T00:36:55.198Z,93.20
2019-06-08T00:39:25.107Z,93.30
2019-06-08T00:41:54.965Z,93.40
2019-06-08T00:44:25.610Z,93.40
2019-06-08T00:46:55.924Z,93.80
2019-06-08T00:49:26.162Z,93.60
2019-06-08T00:51:55.805Z,93.70
2019-06-08T00:54:25.852Z,93.50
2019-06-08T00:56:56.047Z,93.60
2019-06-08T00:59:26.281Z,93.80
2019-06-08T01:01:56.655Z,93.60
2019-06-08T01:04:27.169Z,93.20
2019-06-08T01:06:57.142Z,93.10
2019-06-08T01:09:26.932Z,93.80
2019-06-08T01:11:57.137Z,93.80
2019-06-08T01:14:27.375Z,93.70
2019-06-08T01:16:57.256Z,93.80
2019-06-08T01:19:27.443Z,93.70
2019-06-08T01:21:57.260Z,93.70
2019-06-08T01:24:27.946Z,93.70
2019-06-08T01:26:58.102Z,93.50
2019-06-08T01:29:28.320Z,93.20
2019-06-08T01:31:58.336Z,93.50
2019-06-08T01:34:29.075Z,93.40
2019-06-08T01:36:59.180Z,93.40
2019-06-08T01:39:29.519Z,93.60
2019-06-08T01:41:59.779Z,93.70
2019-06-08T01:44:30.124Z,93.60
2019-06-08T01:47:00.141Z,93.70
2019-06-08T01:49:30.624Z,93.70
2019-06-08T01:52:00.415Z,93.90
2019-06-08T01:54:31.574Z,93.40
2019-06-08T01:57:01.823Z,93.10
2019-06-08T01:59:34.192Z,93.70
2019-06-08T02:02:03.390Z,93.40
2019-06-08T02:04:34.732Z,93.60
2019-06-08T02:07:04.948Z,93.80
2019-06-08T02:09:34.998Z,94.50
2019-06-08T02:12:05.075Z,94.70
2019-06-08T02:14:35.425Z,94.90
2019-06-08T02:17:05.798Z,95.40
2019-06-08T02:19:36.033Z,95.40
2019-06-08T02:22:05.916Z,95.60
2019-06-08T02:24:35.673Z,95.50
2019-06-08T02:27:05.675Z,95.50
2019-06-08T02:29:35.768Z,95.50
2019-06-08T02:32:05.926Z,95.90
2019-06-08T02:34:37.894Z,96.00
2019-06-08T02:37:07.171Z,96.20
2019-06-08T02:39:38.456Z,96.00
2019-06-08T02:42:09.165Z,95.80
2019-06-08T02:44:40.594Z,95.60
2019-06-08T02:47:10.964Z,95.70
2019-06-08T02:49:41.135Z,95.90
2019-06-08T02:52:11.940Z,95.90
2019-06-08T02:54:42.176Z,96.00
2019-06-08T02:57:14.923Z,96.00
2019-06-08T02:59:46.735Z,95.50
2019-06-08T03:02:19.014Z,95.70
2019-06-08T03:04:51.525Z,96.00
2019-06-08T03:07:23.810Z,96.30
2019-06-08T03:09:58.006Z,96.00
2019-06-08T03:12:27.898Z,96.00
2019-06-08T03:14:58.365Z,96.00
2019-06-08T03:17:28.009Z,96.00
2019-06-08T03:19:58.271Z,95.90
2019-06-08T03:22:28.490Z,95.80
2019-06-08T03:24:58.493Z,95.70
2019-06-08T03:27:28.381Z,95.90
2019-06-08T03:29:58.137Z,96.10
2019-06-08T03:32:28.379Z,96.20
2019-06-08T03:34:58.510Z,96.20
2019-06-08T03:37:28.740Z,96.70
2019-06-08T03:39:58.495Z,96.90
2019-06-08T03:42:28.145Z,97.20
2019-06-08T03:44:57.897Z,97.30
2019-06-08T03:47:27.900Z,97.30
2019-06-08T03:49:57.922Z,97.10
2019-06-08T03:52:28.152Z,97.00
2019-06-08T03:54:57.779Z,96.90
2019-06-08T03:57:27.429Z,97.00
2019-06-08T03:59:57.181Z,96.50
2019-06-08T04:02:26.949Z,96.30
2019-06-08T04:04:57.068Z,96.40
2019-06-08T04:07:26.827Z,96.40
2019-06-08T04:09:56.956Z,96.10
2019-06-08T04:12:26.950Z,96.00
2019-06-08T04:14:57.209Z,96.50
2019-06-08T04:17:27.191Z,96.00
2019-06-08T04:20:10.312Z,96.10
2019-06-08T04:22:29.240Z,96.10
2019-06-08T04:24:59.351Z,96.20
2019-06-08T04:27:29.109Z,96.10
2019-06-08T04:29:59.350Z,96.20
2019-06-08T04:32:29.352Z,96.10
2019-06-08T04:34:59.476Z,95.80
2019-06-08T04:37:29.113Z,95.90
2019-06-08T04:39:59.358Z,95.90
2019-06-08T04:42:29.595Z,95.70
2019-06-08T04:44:59.847Z,96.00
2019-06-08T04:47:29.598Z,95.90
2019-06-08T04:49:59.853Z,96.10
2019-06-08T04:52:29.972Z,95.90
2019-06-08T04:54:59.722Z,96.00
2019-06-08T04:57:29.484Z,95.90
2019-06-08T04:59:59.366Z,96.00
2019-06-08T05:02:29.365Z,95.50
2019-06-08T05:04:59.603Z,96.00
2019-06-08T05:07:29.719Z,96.10
2019-06-08T05:09:59.366Z,95.70
2019-06-08T05:12:30.091Z,95.00
2019-06-08T05:15:00.085Z,94.80
2019-06-08T05:17:30.212Z,94.80
2019-06-08T05:19:59.848Z,94.50
2019-06-08T05:22:29.966Z,93.80
2019-06-08T05:24:59.615Z,93.80
2019-06-08T05:27:29.847Z,93.90
2019-06-08T05:29:59.861Z,93.70
2019-06-08T05:32:29.493Z,93.80
2019-06-08T05:34:59.750Z,93.70
2019-06-08T05:37:29.859Z,93.40
2019-06-08T05:40:00.090Z,92.80
2019-06-08T05:42:30.378Z,92.60
2019-06-08T05:45:00.093Z,92.20
2019-06-08T05:47:30.344Z,92.60
2019-06-08T05:50:00.578Z,92.80
2019-06-08T05:52:30.703Z,92.80
2019-06-08T05:55:00.587Z,92.00
2019-06-08T05:57:30.577Z,91.90
2019-06-08T06:00:08.403Z,92.10
2019-06-08T06:02:32.140Z,91.40
2019-06-08T06:05:02.384Z,90.60
2019-06-08T06:07:32.140Z,90.70
2019-06-08T06:10:02.143Z,90.00
2019-06-08T06:12:32.383Z,88.10
2019-06-08T06:15:02.621Z,88.30
2019-06-08T06:17:32.385Z,88.50
2019-06-08T06:20:02.628Z,89.70
2019-06-08T06:22:32.866Z,89.80
2019-06-08T06:25:03.112Z,89.20
2019-06-08T06:27:32.866Z,88.10
2019-06-08T06:30:03.014Z,86.20
2019-06-08T06:32:33.238Z,86.10
2019-06-08T06:35:03.354Z,87.30
2019-06-08T06:37:33.039Z,87.40
2019-06-08T06:40:03.231Z,88.00
2019-06-08T06:42:33.347Z,86.20
2019-06-08T06:45:04.079Z,87.50
2019-06-08T06:47:34.317Z,89.40
2019-06-08T06:50:06.473Z,88.70
2019-06-08T06:52:36.603Z,85.40
2019-06-08T06:55:08.278Z,84.80
2019-06-08T06:57:38.036Z,85.60
2019-06-08T07:00:11.758Z,85.40
2019-06-08T07:02:41.763Z,85.30
2019-06-08T07:05:11.646Z,84.80
2019-06-08T07:07:41.400Z,81.20
2019-06-08T07:10:11.767Z,81.10
2019-06-08T07:12:41.883Z,80.80
2019-06-08T07:15:14.281Z,79.80
2019-06-08T07:17:44.286Z,79.10
2019-06-08T07:20:14.526Z,80.90
2019-06-08T07:22:44.644Z,77.80
2019-06-08T07:25:14.523Z,77.90
2019-06-08T07:27:44.166Z,78.50
2019-06-08T07:30:14.666Z,79.60
2019-06-08T07:32:44.897Z,76.60
2019-06-08T07:35:14.529Z,76.60
2019-06-08T07:37:44.166Z,75.60
2019-06-08T07:40:14.299Z,75.10
2019-06-08T07:42:44.288Z,74.80
2019-06-08T07:45:15.967Z,77.10
2019-06-08T07:47:46.213Z,76.70
2019-06-08T07:50:16.695Z,75.20
2019-06-08T07:52:46.585Z,72.20
2019-06-08T07:55:18.136Z,70.90
2019-06-08T07:57:49.205Z,72.70
2019-06-08T08:00:19.942Z,72.90
2019-06-08T08:02:50.200Z,74.00
2019-06-08T08:05:20.180Z,72.50
2019-06-08T08:07:50.256Z,74.60
2019-06-08T08:10:20.099Z,72.90
2019-06-08T08:12:50.921Z,73.10
2019-06-08T08:15:20.902Z,72.80
2019-06-08T08:17:52.119Z,73.20
2019-06-08T08:20:22.584Z,72.60
2019-06-08T08:22:57.957Z,74.40
2019-06-08T08:25:24.268Z,68.90
2019-06-08T08:27:55.859Z,67.50
2019-06-08T08:30:28.283Z,67.50
2019-06-08T08:33:01.684Z,68.00
2019-06-08T08:35:29.305Z,67.80
2019-06-08T08:38:03.886Z,68.40
2019-06-08T08:40:30.864Z,66.80
2019-06-08T08:43:11.230Z,68.50
2019-06-08T08:45:33.867Z,69.60
2019-06-08T08:48:20.346Z,68.40
2019-06-08T08:50:35.433Z,67.60
2019-06-08T08:53:05.667Z,67.50
2019-06-08T08:55:37.831Z,68.30
2019-06-08T08:58:08.355Z,70.30
2019-06-08T09:00:41.279Z,69.70
2019-06-08T09:03:26.044Z,66.70
2019-06-08T09:05:42.165Z,67.40
2019-06-08T09:08:12.398Z,69.70
2019-06-08T09:10:42.634Z,68.40
2019-06-08T09:13:12.888Z,67.90
2019-06-08T09:15:43.577Z,67.90
2019-06-08T09:18:13.979Z,66.20
2019-06-08T09:20:44.227Z,65.60
2019-06-08T09:23:16.430Z,66.00
2019-06-08T09:25:48.098Z,59.60
2019-06-08T09:28:18.751Z,60.50
2019-06-08T09:30:49.255Z,58.40
2019-06-08T09:33:19.482Z,57.30
2019-06-08T09:35:49.737Z,59.40
2019-06-08T09:38:19.993Z,59.60
2019-06-08T09:40:50.925Z,59.30
2019-06-08T09:43:22.470Z,60.10
2019-06-08T09:45:55.268Z,59.20
2019-06-08T09:48:28.962Z,59.70
2019-06-08T09:51:01.719Z,59.20
2019-06-08T09:53:37.170Z,55.90
2019-06-08T09:56:06.144Z,53.10
2019-06-08T09:58:34.370Z,53.10
2019-06-08T10:01:06.150Z,52.90
2019-06-08T10:03:39.198Z,54.40
2019-06-08T10:06:12.175Z,48.50
2019-06-08T10:08:40.493Z,48.00
2019-06-08T10:11:10.743Z,48.90
2019-06-08T10:13:43.398Z,49.90
2019-06-08T10:16:12.937Z,49.40
2019-06-08T10:18:43.253Z,43.40
2019-06-08T10:21:13.047Z,43.30
2019-06-08T10:23:42.786Z,44.60
2019-06-08T10:26:13.257Z,43.10
2019-06-08T10:28:43.148Z,38.80
2019-06-08T10:31:13.631Z,39.20
2019-06-08T10:33:43.872Z,40.00
2019-06-08T10:36:13.984Z,40.80
2019-06-08T10:38:44.104Z,40.20
2019-06-08T10:41:19.174Z,39.90
2019-06-08T10:43:48.037Z,38.80
2019-06-08T10:46:20.742Z,39.00
2019-06-08T10:48:48.809Z,39.20
2019-06-08T10:51:18.559Z,39.70
2019-06-08T10:53:52.712Z,40.20
2019-06-08T10:56:20.353Z,41.00
2019-06-08T10:58:50.621Z,38.70
2019-06-08T11:01:20.834Z,40.50
2019-06-08T11:03:51.794Z,42.10
2019-06-08T11:06:21.563Z,42.50
2019-06-08T11:08:51.795Z,42.10
2019-06-08T11:11:21.942Z,41.50
2019-06-08T11:13:52.148Z,42.00
2019-06-08T11:16:21.915Z,43.60
2019-06-08T11:18:51.577Z,44.10
2019-06-08T11:21:21.669Z,42.20
2019-06-08T11:24:05.808Z,41.50
2019-06-08T11:26:24.540Z,41.00
2019-06-08T11:28:54.311Z,42.60
2019-06-08T11:31:24.510Z,41.10
2019-06-08T11:33:54.560Z,43.20
2019-06-08T11:36:24.556Z,43.20
2019-06-08T11:38:55.042Z,43.40
2019-06-08T11:41:27.699Z,41.60
2019-06-08T11:43:59.649Z,42.60
2019-06-08T11:46:28.770Z,44.00
2019-06-08T11:49:01.137Z,41.00
2019-06-08T11:51:30.816Z,41.40
2019-06-08T11:54:01.047Z,41.00
2019-06-08T11:56:32.245Z,43.50
2019-06-08T11:59:05.227Z,42.30
2019-06-08T12:01:35.606Z,42.70
2019-06-08T12:04:05.974Z,43.50
2019-06-08T12:06:37.670Z,42.40
2019-06-08T12:09:09.523Z,41.90
2019-06-08T12:11:40.406Z,44.50
2019-06-08T12:14:11.445Z,42.70
2019-06-08T12:16:42.453Z,43.10
2019-06-08T12:19:15.536Z,43.40
2019-06-08T12:21:44.246Z,38.30
2019-06-08T12:24:14.396Z,39.20
2019-06-08T12:26:44.730Z,40.60
2019-06-08T12:29:16.783Z,39.00
2019-06-08T12:31:46.410Z,40.70
2019-06-08T12:34:18.340Z,40.00
2019-06-08T12:36:48.105Z,39.40
2019-06-08T12:39:20.968Z,40.50
2019-06-08T12:41:49.535Z,41.30
2019-06-08T12:44:21.749Z,41.90
2019-06-08T12:46:51.099Z,42.10
2019-06-08T12:49:20.737Z,42.30
2019-06-08T12:51:51.854Z,42.60
2019-06-08T12:54:21.714Z,41.60
2019-06-08T12:56:52.066Z,41.70
2019-06-08T12:59:23.125Z,42.10
2019-06-08T13:01:53.261Z,42.50
2019-06-08T13:04:23.877Z,44.50
2019-06-08T13:06:53.744Z,44.70
2019-06-08T13:09:23.986Z,44.50
2019-06-08T13:11:56.461Z,44.60
2019-06-08T13:14:28.295Z,43.50
2019-06-08T13:17:00.761Z,43.50
2019-06-08T13:19:29.405Z,42.20
2019-06-08T13:21:59.269Z,42.90
2019-06-08T13:24:29.508Z,43.30
2019-06-08T13:26:59.389Z,44.10
2019-06-08T13:29:29.518Z,44.10
2019-06-08T13:32:01.594Z,43.40
2019-06-08T13:34:31.442Z,41.80
2019-06-08T13:37:01.188Z,41.70
2019-06-08T13:39:31.319Z,42.80
2019-06-08T13:42:01.189Z,44.20
2019-06-08T13:44:31.437Z,43.70
2019-06-08T13:47:02.125Z,44.00
2019-06-08T13:49:32.009Z,43.00
2019-06-08T13:52:02.036Z,42.70
2019-06-08T13:54:32.286Z,43.60
2019-06-08T13:57:02.516Z,43.20
2019-06-08T13:59:32.516Z,44.40
2019-06-08T14:02:02.637Z,43.90
2019-06-08T14:04:33.244Z,43.60
2019-06-08T14:07:02.999Z,43.10
2019-06-08T14:09:33.241Z,45.70
2019-06-08T14:12:03.247Z,43.50
2019-06-08T14:14:33.845Z,45.00
2019-06-08T14:17:03.847Z,44.70
2019-06-08T14:19:33.847Z,43.90
2019-06-08T14:22:04.091Z,44.90
2019-06-08T14:24:34.845Z,43.70
2019-06-08T14:27:05.048Z,43.30
2019-06-08T14:29:34.807Z,44.70
2019-06-08T14:32:07.694Z,44.20
2019-06-08T14:34:38.722Z,44.20
2019-06-08T14:37:08.725Z,44.80
2019-06-08T14:39:38.892Z,44.30
2019-06-08T14:42:09.127Z,44.80
2019-06-08T14:44:38.773Z,44.50
2019-06-08T14:47:14.667Z,43.20
2019-06-08T14:49:48.731Z,44.30
2019-06-08T14:52:21.019Z,43.80
2019-06-08T14:54:51.378Z,44.60
2019-06-08T14:57:21.280Z,43.90
2019-06-08T14:59:51.132Z,43.50
2019-06-08T15:02:21.284Z,42.70
2019-06-08T15:04:50.903Z,41.80
2019-06-08T15:07:23.350Z,42.40
2019-06-08T15:09:52.937Z,43.20
2019-06-08T15:12:23.503Z,44.10
2019-06-08T15:14:53.658Z,43.30
2019-06-08T15:17:23.819Z,42.00
2019-06-08T15:19:53.936Z,43.60
2019-06-08T15:22:24.181Z,43.00
2019-06-08T15:24:54.137Z,43.60
2019-06-08T15:27:25.872Z,43.10
2019-06-08T15:29:55.224Z,43.50
2019-06-08T15:32:32.195Z,43.70
2019-06-08T15:34:59.315Z,43.50
2019-06-08T15:37:30.511Z,43.10
2019-06-08T15:40:00.871Z,43.60
2019-06-08T15:42:32.431Z,43.30
2019-06-08T15:45:02.908Z,42.40
2019-06-08T15:47:33.237Z,43.00
2019-06-08T15:50:03.424Z,42.70
2019-06-08T15:52:34.316Z,42.80
2019-06-08T15:55:05.079Z,41.50
2019-06-08T15:57:38.767Z,39.90
2019-06-08T16:00:10.398Z,38.00
2019-06-08T16:02:40.715Z,36.20
2019-06-08T16:05:10.837Z,35.00
2019-06-08T16:07:40.594Z,33.50
2019-06-08T16:10:10.838Z,32.30
2019-06-08T16:12:40.881Z,31.30
2019-06-08T16:15:10.977Z,32.50
2019-06-08T16:17:41.227Z,30.70
2019-06-08T16:20:11.441Z,30.00
2019-06-08T16:22:41.797Z,29.40
2019-06-08T16:25:12.258Z,29.30
2019-06-08T16:27:42.043Z,29.40
2019-06-08T16:30:11.926Z,30.00
2019-06-08T16:32:41.687Z,28.80
2019-06-08T16:35:11.818Z,28.30
2019-06-08T16:37:41.812Z,28.20
2019-06-08T16:40:12.052Z,28.00
2019-06-08T16:42:41.929Z,28.20
2019-06-08T16:45:11.950Z,29.80
2019-06-08T16:47:43.702Z,28.60
2019-06-08T16:50:24.386Z,28.70
2019-06-08T16:52:48.529Z,28.90
2019-06-08T16:55:18.770Z,27.70
2019-06-08T16:57:48.527Z,27.40
2019-06-08T17:00:30.286Z,28.00
2019-06-08T17:02:50.092Z,28.10
2019-06-08T17:05:20.330Z,27.70
2019-06-08T17:07:50.338Z,28.20
2019-06-08T17:10:20.577Z,27.80
2019-06-08T17:12:50.335Z,27.50
2019-06-08T17:15:20.692Z,27.90
2019-06-08T17:17:50.942Z,28.20
2019-06-08T17:20:20.814Z,28.40
2019-06-08T17:22:50.572Z,28.50
2019-06-08T17:25:20.936Z,28.90
2019-06-08T17:27:50.698Z,27.60
2019-06-08T17:30:21.307Z,28.50
2019-06-08T17:32:50.943Z,27.80
2019-06-08T17:35:20.581Z,28.70
2019-06-08T17:37:50.829Z,27.50
2019-06-08T17:40:21.061Z,27.00
2019-06-08T17:42:51.188Z,26.70
2019-06-08T17:45:21.300Z,28.80
2019-06-08T17:47:51.189Z,27.90
2019-06-08T17:50:22.508Z,28.40
2019-06-08T17:52:52.264Z,28.30
2019-06-08T17:55:22.145Z,27.30
2019-06-08T17:57:53.674Z,28.00
2019-06-08T18:00:24.774Z,28.80
2019-06-08T18:02:57.722Z,28.70
2019-06-08T18:05:28.390Z,29.30
2019-06-08T18:07:58.273Z,29.70
2019-06-08T18:10:28.397Z,30.60
2019-06-08T18:12:58.929Z,32.80
2019-06-08T18:15:28.749Z,35.40
2019-06-08T18:17:58.510Z,37.60
2019-06-08T18:20:28.425Z,40.40
2019-06-08T18:22:58.510Z,41.60
2019-06-08T18:25:28.683Z,43.00
2019-06-08T18:28:09.736Z,44.70
2019-06-08T18:30:30.313Z,46.00
2019-06-08T18:33:00.198Z,46.90
2019-06-08T18:35:30.560Z,48.50
2019-06-08T18:38:00.679Z,50.60
2019-06-08T18:40:30.920Z,51.10
2019-06-08T18:43:00.677Z,52.80
2019-06-08T18:45:31.758Z,52.90
2019-06-08T18:48:01.410Z,53.80
2019-06-08T18:50:31.647Z,54.80
2019-06-08T18:53:01.763Z,55.60
2019-06-08T18:55:32.006Z,56.20
2019-06-08T18:58:16.445Z,56.90
2019-06-08T19:00:41.351Z,58.30
2019-06-08T19:03:10.284Z,59.70
2019-06-08T19:05:45.157Z,61.80
2019-06-08T19:08:14.730Z,62.90
2019-06-08T19:10:46.167Z,64.60
2019-06-08T19:13:17.947Z,66.30
2019-06-08T19:15:52.777Z,68.00
2019-06-08T19:18:20.134Z,70.50
2019-06-08T19:20:53.044Z,71.00
2019-06-08T19:23:21.830Z,73.10
2019-06-08T19:25:51.940Z,74.40
2019-06-08T19:28:35.235Z,74.80
2019-06-08T19:30:53.493Z,76.30
2019-06-08T19:33:23.137Z,78.00
2019-06-08T19:35:53.906Z,79.40
2019-06-08T19:38:23.618Z,81.10
2019-06-08T19:40:53.860Z,81.90
2019-06-08T19:43:23.621Z,83.10
2019-06-08T19:45:53.643Z,84.30
2019-06-08T19:48:23.259Z,86.40
2019-06-08T19:50:54.414Z,86.20
2019-06-08T19:53:24.459Z,86.70
2019-06-08T19:55:54.342Z,87.50
2019-06-08T19:58:24.100Z,88.40
2019-06-08T20:00:54.913Z,89.80
2019-06-08T20:03:27.452Z,90.60
2019-06-08T20:05:56.747Z,91.90
2019-06-08T20:08:29.133Z,92.40
2019-06-08T20:10:58.424Z,94.00
2019-06-08T20:13:28.547Z,93.90
2019-06-08T20:16:02.135Z,94.10
2019-06-08T20:18:30.225Z,94.30
2019-06-08T20:21:00.230Z,94.80
2019-06-08T20:23:30.468Z,95.90
2019-06-08T20:26:00.903Z,97.60
2019-06-08T20:28:30.952Z,97.50
2019-06-08T20:31:01.428Z,97.30
2019-06-08T20:33:31.429Z,97.30
2019-06-08T20:36:01.449Z,97.40
2019-06-08T20:38:38.482Z,97.50
2019-06-08T20:41:03.471Z,98.30
2019-06-08T20:43:33.120Z,98.50
2019-06-08T20:46:02.878Z,98.60
2019-06-08T20:48:33.006Z,99.00
2019-06-08T20:51:02.876Z,99.30
2019-06-08T20:53:32.519Z,99.70
2019-06-08T20:56:02.517Z,99.90
2019-06-08T20:58:32.160Z,99.90
2019-06-08T21:01:02.281Z,99.90
2019-06-08T21:03:32.278Z,99.90
2019-06-08T21:06:02.279Z,99.90
2019-06-08T21:08:31.924Z,99.90
2019-06-08T21:11:01.565Z,99.90
2019-06-08T21:13:31.442Z,99.90
2019-06-08T21:16:01.213Z,99.90
2019-06-08T21:18:31.346Z,99.90
2019-06-08T21:21:01.447Z,99.90
2019-06-08T21:23:32.252Z,99.90
2019-06-08T21:26:02.049Z,99.90
2019-06-08T21:28:32.289Z,99.90
2019-06-08T21:31:02.484Z,99.90
2019-06-08T21:33:32.770Z,99.90
2019-06-08T21:36:05.005Z,99.90
2019-06-08T21:38:34.809Z,99.90
2019-06-08T21:41:04.458Z,99.90
2019-06-08T21:43:37.281Z,99.90
2019-06-08T21:46:07.772Z,99.90
2019-06-08T21:48:38.290Z,99.90
2019-06-08T21:51:08.445Z,99.90
2019-06-08T21:53:38.375Z,99.90
2019-06-08T21:56:08.102Z,99.90
2019-06-08T21:58:38.075Z,99.90
2019-06-08T22:01:07.820Z,99.90
2019-06-08T22:03:38.247Z,99.90
2019-06-08T22:06:08.299Z,99.90
2019-06-08T22:08:37.946Z,99.90
2019-06-08T22:11:08.676Z,99.90
2019-06-08T22:13:38.809Z,99.90
2019-06-08T22:16:08.540Z,99.90
2019-06-08T22:18:38.789Z,99.90
2019-06-08T22:21:09.023Z,99.90
2019-06-08T22:23:38.664Z,99.90
2019-06-08T22:26:08.545Z,99.90
2019-06-08T22:28:38.797Z,99.90
2019-06-08T22:31:08.788Z,99.90
2019-06-08T22:33:39.030Z,99.90
2019-06-08T22:36:09.339Z,99.90
2019-06-08T22:38:39.152Z,99.90
2019-06-08T22:41:09.146Z,99.90
2019-06-08T22:43:40.110Z,99.90
2019-06-08T22:46:10.350Z,99.90
2019-06-08T22:48:40.228Z,99.90
2019-06-08T22:51:10.229Z,99.90
2019-06-08T22:53:40.237Z,99.90
2019-06-08T22:56:10.351Z,99.90
2019-06-08T22:58:40.001Z,99.90
2019-06-08T23:01:11.569Z,99.90
2019-06-08T23:03:41.674Z,99.90
2019-06-08T23:06:11.320Z,99.90
2019-06-08T23:08:41.196Z,99.90
2019-06-08T23:11:11.196Z,99.90
2019-06-08T23:13:41.202Z,99.90
2019-06-08T23:16:10.848Z,99.90
2019-06-08T23:18:41.081Z,99.90
2019-06-08T23:21:11.079Z,99.90
2019-06-08T23:23:40.721Z,99.90
2019-06-08T23:26:10.775Z,99.90
2019-06-08T23:28:40.483Z,99.90
2019-06-08T23:31:20.994Z,99.90
2019-06-08T23:33:42.162Z,99.90
2019-06-08T23:38:43.608Z,99.90
2019-06-08T23:41:13.489Z,99.90
2019-06-08T23:43:43.266Z,99.90
2019-06-08T23:46:13.011Z,99.90
2019-06-08T23:48:43.011Z,99.90
2019-06-08T23:51:14.210Z,99.90
2019-06-08T23:53:44.089Z,99.90
2019-06-08T23:56:13.979Z,99.90
2019-06-08T23:58:43.853Z,99.90
